Three Rivers, New Mexico
Current Conditions -  °F | °C
As of 12:58 AM on Friday 19 Dec 2014 (Local Time) from KHMN Reporting Station
Overcast Overcast  
Wind Chill: 40°   Ceiling: 2800
Heat Index: 40°   Visibility: 10mi
Dew Point: 40°   Wind: 3mph
Humidity: 99%   Direction: 20°NNE
Pressure: 30.13"   Gusts: NA
Location:  33.1487°N, 106.136°W
Report Text: KHMN 190758Z AUTO 02003KT 10SM OVC028 05/05 A3013 RMK AO2 SLP176 T00470045 $
Loading
Personal Weather Stations






























Interactive Weather Map New forecast layout! Learn more

10-Day Weather Forecast

Advertisements
Track Severe Weather on mobile